sensor_id;sensor_type;location;lat;lon;timestamp;P1;durP1;ratioP1;P2;durP2;ratioP2
35917;SDS011;22011;59.912;30.300;2022-12-05T00:00:51;12.85;;;6.68;;
35917;SDS011;22011;59.912;30.300;2022-12-05T00:03:20;11.00;;;6.60;;
35917;SDS011;22011;59.912;30.300;2022-12-05T00:05:48;15.13;;;7.72;;
35917;SDS011;22011;59.912;30.300;2022-12-05T00:08:15;14.02;;;7.45;;
35917;SDS011;22011;59.912;30.300;2022-12-05T00:10:43;11.40;;;7.13;;
35917;SDS011;22011;59.912;30.300;2022-12-05T00:13:12;12.93;;;7.50;;
35917;SDS011;22011;59.912;30.300;2022-12-05T00:15:40;13.48;;;7.25;;
35917;SDS011;22011;59.912;30.300;2022-12-05T00:18:07;12.90;;;7.70;;
35917;SDS011;22011;59.912;30.300;2022-12-05T00:20:35;13.77;;;7.70;;
35917;SDS011;22011;59.912;30.300;2022-12-05T00:23:02;11.82;;;7.90;;
35917;SDS011;22011;59.912;30.300;2022-12-05T00:25:30;15.45;;;8.52;;
35917;SDS011;22011;59.912;30.300;2022-12-05T00:27:57;11.63;;;7.45;;
35917;SDS011;22011;59.912;30.300;2022-12-05T00:30:26;14.27;;;7.70;;
35917;SDS011;22011;59.912;30.300;2022-12-05T00:32:54;13.90;;;8.23;;
35917;SDS011;22011;59.912;30.300;2022-12-05T00:35:22;9.70;;;7.20;;
35917;SDS011;22011;59.912;30.300;2022-12-05T00:37:49;11.93;;;7.60;;
35917;SDS011;22011;59.912;30.300;2022-12-05T00:40:17;12.95;;;8.15;;
35917;SDS011;22011;59.912;30.300;2022-12-05T00:42:45;13.18;;;7.45;;
35917;SDS011;22011;59.912;30.300;2022-12-05T00:45:12;10.80;;;6.85;;
35917;SDS011;22011;59.912;30.300;2022-12-05T00:47:41;10.98;;;6.68;;
35917;SDS011;22011;59.912;30.300;2022-12-05T00:50:09;12.60;;;7.88;;
35917;SDS011;22011;59.912;30.300;2022-12-05T00:52:36;13.55;;;7.72;;
35917;SDS011;22011;59.912;30.300;2022-12-05T00:55:04;11.93;;;7.28;;
35917;SDS011;22011;59.912;30.300;2022-12-05T00:57:32;13.68;;;7.65;;
35917;SDS011;22011;59.912;30.300;2022-12-05T00:59:59;11.13;;;5.90;;
35917;SDS011;22011;59.912;30.300;2022-12-05T01:02:27;12.43;;;6.60;;
35917;SDS011;22011;59.912;30.300;2022-12-05T01:04:57;14.10;;;7.40;;
35917;SDS011;22011;59.912;30.300;2022-12-05T01:07:25;13.15;;;6.80;;
35917;SDS011;22011;59.912;30.300;2022-12-05T01:09:52;13.75;;;8.13;;
35917;SDS011;22011;59.912;30.300;2022-12-05T01:12:20;14.75;;;8.00;;
35917;SDS011;22011;59.912;30.300;2022-12-05T01:14:47;12.35;;;6.88;;
35917;SDS011;22011;59.912;30.300;2022-12-05T01:17:15;15.60;;;8.15;;
35917;SDS011;22011;59.912;30.300;2022-12-05T01:19:43;14.02;;;7.20;;
35917;SDS011;22011;59.912;30.300;2022-12-05T01:22:11;13.52;;;7.53;;
35917;SDS011;22011;59.912;30.300;2022-12-05T01:24:39;14.65;;;8.10;;
35917;SDS011;22011;59.912;30.300;2022-12-05T01:27:06;13.05;;;8.10;;
35917;SDS011;22011;59.912;30.300;2022-12-05T01:29:34;13.73;;;8.57;;
35917;SDS011;22011;59.912;30.300;2022-12-05T01:32:02;13.35;;;7.90;;
35917;SDS011;22011;59.912;30.300;2022-12-05T01:34:29;14.43;;;7.57;;
35917;SDS011;22011;59.912;30.300;2022-12-05T01:36:57;11.93;;;7.57;;
35917;SDS011;22011;59.912;30.300;2022-12-05T01:39:26;16.83;;;8.45;;
35917;SDS011;22011;59.912;30.300;2022-12-05T01:41:53;11.10;;;7.45;;
35917;SDS011;22011;59.912;30.300;2022-12-05T01:47:29;15.18;;;7.88;;
35917;SDS011;22011;59.912;30.300;2022-12-05T01:49:58;12.13;;;8.00;;
35917;SDS011;22011;59.912;30.300;2022-12-05T01:52:27;12.07;;;7.53;;
35917;SDS011;22011;59.912;30.300;2022-12-05T01:54:59;12.40;;;7.82;;
35917;SDS011;22011;59.912;30.300;2022-12-05T01:57:32;15.07;;;7.50;;
35917;SDS011;22011;59.912;30.300;2022-12-05T02:00:00;13.48;;;8.13;;
35917;SDS011;22011;59.912;30.300;2022-12-05T02:02:38;13.77;;;8.63;;
35917;SDS011;22011;59.912;30.300;2022-12-05T02:05:09;14.55;;;9.88;;
35917;SDS011;22011;59.912;30.300;2022-12-05T02:07:41;16.15;;;10.10;;
35917;SDS011;22011;59.912;30.300;2022-12-05T02:10:11;14.15;;;9.35;;
35917;SDS011;22011;59.912;30.300;2022-12-05T02:12:38;14.43;;;9.07;;
35917;SDS011;22011;59.912;30.300;2022-12-05T02:15:12;19.10;;;9.40;;
35917;SDS011;22011;59.912;30.300;2022-12-05T02:17:50;17.17;;;10.70;;
35917;SDS011;22011;59.912;30.300;2022-12-05T02:20:28;18.00;;;10.20;;
35917;SDS011;22011;59.912;30.300;2022-12-05T02:23:15;20.83;;;10.82;;
35917;SDS011;22011;59.912;30.300;2022-12-05T02:29:05;14.48;;;8.00;;
35917;SDS011;22011;59.912;30.300;2022-12-05T02:32:02;13.27;;;7.15;;
35917;SDS011;22011;59.912;30.300;2022-12-05T02:34:34;13.68;;;8.02;;
35917;SDS011;22011;59.912;30.300;2022-12-05T02:37:06;12.77;;;8.02;;
35917;SDS011;22011;59.912;30.300;2022-12-05T02:39:40;17.75;;;9.07;;
35917;SDS011;22011;59.912;30.300;2022-12-05T02:42:14;12.45;;;7.80;;
35917;SDS011;22011;59.912;30.300;2022-12-05T02:44:48;13.88;;;8.73;;
35917;SDS011;22011;59.912;30.300;2022-12-05T02:47:23;15.10;;;9.10;;
35917;SDS011;22011;59.912;30.300;2022-12-05T02:49:55;13.27;;;8.45;;
35917;SDS011;22011;59.912;30.300;2022-12-05T02:52:24;14.90;;;8.85;;
35917;SDS011;22011;59.912;30.300;2022-12-05T02:54:53;13.13;;;8.60;;
35917;SDS011;22011;59.912;30.300;2022-12-05T02:57:21;13.95;;;8.10;;
35917;SDS011;22011;59.912;30.300;2022-12-05T02:59:50;12.60;;;7.95;;
35917;SDS011;22011;59.912;30.300;2022-12-05T03:02:25;13.82;;;8.43;;
35917;SDS011;22011;59.912;30.300;2022-12-05T03:04:56;19.35;;;9.65;;
35917;SDS011;22011;59.912;30.300;2022-12-05T03:07:30;13.00;;;7.78;;
35917;SDS011;22011;59.912;30.300;2022-12-05T03:09:59;13.63;;;8.45;;
35917;SDS011;22011;59.912;30.300;2022-12-05T03:12:31;10.98;;;7.68;;
35917;SDS011;22011;59.912;30.300;2022-12-05T03:15:03;10.77;;;6.95;;
35917;SDS011;22011;59.912;30.300;2022-12-05T03:17:39;13.23;;;7.82;;
35917;SDS011;22011;59.912;30.300;2022-12-05T03:20:12;15.05;;;9.65;;
35917;SDS011;22011;59.912;30.300;2022-12-05T03:22:48;16.60;;;8.45;;
35917;SDS011;22011;59.912;30.300;2022-12-05T03:25:19;14.93;;;8.35;;
35917;SDS011;22011;59.912;30.300;2022-12-05T03:27:52;17.33;;;9.00;;
35917;SDS011;22011;59.912;30.300;2022-12-05T03:30:28;19.13;;;8.90;;
35917;SDS011;22011;59.912;30.300;2022-12-05T03:33:04;17.08;;;8.02;;
35917;SDS011;22011;59.912;30.300;2022-12-05T03:35:39;14.77;;;8.10;;
35917;SDS011;22011;59.912;30.300;2022-12-05T03:38:12;14.00;;;8.68;;
35917;SDS011;22011;59.912;30.300;2022-12-05T03:40:43;15.63;;;7.72;;
35917;SDS011;22011;59.912;30.300;2022-12-05T03:43:15;15.95;;;9.90;;
35917;SDS011;22011;59.912;30.300;2022-12-05T03:45:50;15.30;;;8.50;;
35917;SDS011;22011;59.912;30.300;2022-12-05T03:48:25;12.57;;;8.35;;
35917;SDS011;22011;59.912;30.300;2022-12-05T03:50:57;16.15;;;8.13;;
35917;SDS011;22011;59.912;30.300;2022-12-05T03:53:26;18.60;;;10.05;;
35917;SDS011;22011;59.912;30.300;2022-12-05T03:55:59;20.02;;;8.77;;
35917;SDS011;22011;59.912;30.300;2022-12-05T03:58:32;14.27;;;8.60;;
35917;SDS011;22011;59.912;30.300;2022-12-05T04:01:05;12.15;;;7.88;;
35917;SDS011;22011;59.912;30.300;2022-12-05T04:03:37;22.42;;;8.10;;
35917;SDS011;22011;59.912;30.300;2022-12-05T04:06:17;15.20;;;8.30;;
35917;SDS011;22011;59.912;30.300;2022-12-05T04:08:49;14.50;;;7.80;;
35917;SDS011;22011;59.912;30.300;2022-12-05T04:11:20;15.70;;;7.88;;
35917;SDS011;22011;59.912;30.300;2022-12-05T04:13:51;19.58;;;8.85;;
35917;SDS011;22011;59.912;30.300;2022-12-05T04:16:21;13.17;;;7.53;;
35917;SDS011;22011;59.912;30.300;2022-12-05T04:19:13;18.08;;;9.57;;
35917;SDS011;22011;59.912;30.300;2022-12-05T04:21:44;18.25;;;9.52;;
35917;SDS011;22011;59.912;30.300;2022-12-05T04:24:13;15.18;;;7.80;;
35917;SDS011;22011;59.912;30.300;2022-12-05T04:27:05;16.17;;;9.43;;
35917;SDS011;22011;59.912;30.300;2022-12-05T04:29:43;16.75;;;8.57;;
35917;SDS011;22011;59.912;30.300;2022-12-05T04:32:18;18.00;;;8.40;;
35917;SDS011;22011;59.912;30.300;2022-12-05T04:34:54;16.35;;;9.02;;
35917;SDS011;22011;59.912;30.300;2022-12-05T04:37:24;25.70;;;9.43;;
35917;SDS011;22011;59.912;30.300;2022-12-05T04:39:57;17.17;;;8.40;;
35917;SDS011;22011;59.912;30.300;2022-12-05T04:42:30;16.20;;;8.88;;
35917;SDS011;22011;59.912;30.300;2022-12-05T04:45:01;19.42;;;9.77;;
35917;SDS011;22011;59.912;30.300;2022-12-05T04:47:34;14.60;;;8.60;;
35917;SDS011;22011;59.912;30.300;2022-12-05T04:50:07;14.57;;;8.38;;
35917;SDS011;22011;59.912;30.300;2022-12-05T04:52:36;18.10;;;9.95;;
35917;SDS011;22011;59.912;30.300;2022-12-05T04:55:06;18.70;;;9.68;;
35917;SDS011;22011;59.912;30.300;2022-12-05T04:57:39;21.65;;;9.13;;
35917;SDS011;22011;59.912;30.300;2022-12-05T05:00:10;17.23;;;9.73;;
35917;SDS011;22011;59.912;30.300;2022-12-05T05:02:39;17.50;;;9.50;;
35917;SDS011;22011;59.912;30.300;2022-12-05T05:05:13;21.63;;;10.27;;
35917;SDS011;22011;59.912;30.300;2022-12-05T05:07:44;20.45;;;10.88;;
35917;SDS011;22011;59.912;30.300;2022-12-05T05:10:18;25.98;;;11.43;;
35917;SDS011;22011;59.912;30.300;2022-12-05T05:12:53;28.63;;;10.77;;
35917;SDS011;22011;59.912;30.300;2022-12-05T05:15:21;16.00;;;9.70;;
35917;SDS011;22011;59.912;30.300;2022-12-05T05:17:48;18.10;;;11.20;;
35917;SDS011;22011;59.912;30.300;2022-12-05T05:20:17;24.58;;;11.15;;
35917;SDS011;22011;59.912;30.300;2022-12-05T05:22:52;22.67;;;11.02;;
35917;SDS011;22011;59.912;30.300;2022-12-05T05:25:21;23.80;;;10.73;;
35917;SDS011;22011;59.912;30.300;2022-12-05T05:27:49;23.27;;;11.20;;
35917;SDS011;22011;59.912;30.300;2022-12-05T05:30:18;25.52;;;11.13;;
35917;SDS011;22011;59.912;30.300;2022-12-05T05:32:46;19.80;;;11.15;;
35917;SDS011;22011;59.912;30.300;2022-12-05T05:35:14;20.05;;;10.38;;
35917;SDS011;22011;59.912;30.300;2022-12-05T05:37:43;19.75;;;10.40;;
35917;SDS011;22011;59.912;30.300;2022-12-05T05:40:12;28.05;;;11.60;;
35917;SDS011;22011;59.912;30.300;2022-12-05T05:42:41;22.90;;;10.82;;
35917;SDS011;22011;59.912;30.300;2022-12-05T05:45:10;30.07;;;10.77;;
35917;SDS011;22011;59.912;30.300;2022-12-05T05:47:39;22.83;;;10.27;;
35917;SDS011;22011;59.912;30.300;2022-12-05T05:50:07;24.10;;;11.18;;
35917;SDS011;22011;59.912;30.300;2022-12-05T05:52:37;23.85;;;10.40;;
35917;SDS011;22011;59.912;30.300;2022-12-05T05:55:05;35.43;;;11.67;;
35917;SDS011;22011;59.912;30.300;2022-12-05T05:57:34;17.15;;;10.98;;
35917;SDS011;22011;59.912;30.300;2022-12-05T06:00:03;26.73;;;11.27;;
35917;SDS011;22011;59.912;30.300;2022-12-05T06:02:32;22.33;;;11.32;;
35917;SDS011;22011;59.912;30.300;2022-12-05T06:05:00;24.30;;;11.25;;
35917;SDS011;22011;59.912;30.300;2022-12-05T06:07:28;23.20;;;11.05;;
35917;SDS011;22011;59.912;30.300;2022-12-05T06:09:57;21.65;;;11.18;;
35917;SDS011;22011;59.912;30.300;2022-12-05T06:12:24;18.92;;;12.70;;
35917;SDS011;22011;59.912;30.300;2022-12-05T06:14:52;22.45;;;11.32;;
35917;SDS011;22011;59.912;30.300;2022-12-05T06:17:19;27.25;;;11.52;;
35917;SDS011;22011;59.912;30.300;2022-12-05T06:19:47;27.67;;;11.25;;
35917;SDS011;22011;59.912;30.300;2022-12-05T06:22:14;25.73;;;13.55;;
35917;SDS011;22011;59.912;30.300;2022-12-05T06:24:42;31.52;;;13.88;;
35917;SDS011;22011;59.912;30.300;2022-12-05T06:27:11;18.65;;;11.13;;
35917;SDS011;22011;59.912;30.300;2022-12-05T06:29:38;20.23;;;11.30;;
35917;SDS011;22011;59.912;30.300;2022-12-05T06:32:06;23.65;;;12.80;;
35917;SDS011;22011;59.912;30.300;2022-12-05T06:34:34;26.90;;;10.98;;
35917;SDS011;22011;59.912;30.300;2022-12-05T06:37:01;20.55;;;10.55;;
35917;SDS011;22011;59.912;30.300;2022-12-05T06:39:29;18.80;;;10.10;;
35917;SDS011;22011;59.912;30.300;2022-12-05T06:41:57;18.90;;;10.48;;
35917;SDS011;22011;59.912;30.300;2022-12-05T06:44:26;24.73;;;10.40;;
35917;SDS011;22011;59.912;30.300;2022-12-05T06:46:54;21.20;;;10.77;;
35917;SDS011;22011;59.912;30.300;2022-12-05T06:49:22;20.55;;;11.45;;
35917;SDS011;22011;59.912;30.300;2022-12-05T06:51:51;24.83;;;12.20;;
35917;SDS011;22011;59.912;30.300;2022-12-05T06:54:19;20.27;;;10.25;;
35917;SDS011;22011;59.912;30.300;2022-12-05T06:56:46;21.35;;;11.48;;
35917;SDS011;22011;59.912;30.300;2022-12-05T06:59:14;19.75;;;10.88;;
35917;SDS011;22011;59.912;30.300;2022-12-05T07:01:43;18.10;;;10.48;;
35917;SDS011;22011;59.912;30.300;2022-12-05T07:04:12;24.37;;;12.87;;
35917;SDS011;22011;59.912;30.300;2022-12-05T07:06:42;23.65;;;13.10;;
35917;SDS011;22011;59.912;30.300;2022-12-05T07:09:11;21.58;;;12.80;;
35917;SDS011;22011;59.912;30.300;2022-12-05T07:11:39;19.65;;;11.65;;
35917;SDS011;22011;59.912;30.300;2022-12-05T07:14:06;25.63;;;10.82;;
35917;SDS011;22011;59.912;30.300;2022-12-05T07:16:35;27.92;;;12.40;;
35917;SDS011;22011;59.912;30.300;2022-12-05T07:19:04;23.27;;;11.57;;
35917;SDS011;22011;59.912;30.300;2022-12-05T07:21:32;21.27;;;12.05;;
35917;SDS011;22011;59.912;30.300;2022-12-05T07:23:59;20.13;;;11.00;;
35917;SDS011;22011;59.912;30.300;2022-12-05T07:26:27;21.20;;;11.50;;
35917;SDS011;22011;59.912;30.300;2022-12-05T07:28:55;25.33;;;10.63;;
35917;SDS011;22011;59.912;30.300;2022-12-05T07:31:23;21.83;;;11.15;;
35917;SDS011;22011;59.912;30.300;2022-12-05T07:33:51;21.95;;;11.50;;
35917;SDS011;22011;59.912;30.300;2022-12-05T07:36:20;24.25;;;12.32;;
35917;SDS011;22011;59.912;30.300;2022-12-05T07:38:52;22.90;;;11.57;;
35917;SDS011;22011;59.912;30.300;2022-12-05T07:41:22;17.40;;;10.93;;
35917;SDS011;22011;59.912;30.300;2022-12-05T07:43:51;25.30;;;11.98;;
35917;SDS011;22011;59.912;30.300;2022-12-05T07:46:20;20.73;;;12.40;;
35917;SDS011;22011;59.912;30.300;2022-12-05T07:48:48;23.55;;;12.95;;
35917;SDS011;22011;59.912;30.300;2022-12-05T07:51:17;22.13;;;12.50;;
35917;SDS011;22011;59.912;30.300;2022-12-05T07:53:47;28.25;;;11.70;;
35917;SDS011;22011;59.912;30.300;2022-12-05T07:56:15;20.80;;;12.05;;
35917;SDS011;22011;59.912;30.300;2022-12-05T07:58:43;23.95;;;11.98;;
35917;SDS011;22011;59.912;30.300;2022-12-05T08:01:13;23.45;;;11.65;;
35917;SDS011;22011;59.912;30.300;2022-12-05T08:03:41;26.55;;;12.32;;
35917;SDS011;22011;59.912;30.300;2022-12-05T08:06:10;24.35;;;12.25;;
35917;SDS011;22011;59.912;30.300;2022-12-05T08:08:39;26.27;;;12.15;;
35917;SDS011;22011;59.912;30.300;2022-12-05T08:11:09;20.65;;;12.27;;
35917;SDS011;22011;59.912;30.300;2022-12-05T08:13:37;22.75;;;13.07;;
35917;SDS011;22011;59.912;30.300;2022-12-05T08:16:06;21.95;;;12.15;;
35917;SDS011;22011;59.912;30.300;2022-12-05T08:18:36;24.10;;;13.13;;
35917;SDS011;22011;59.912;30.300;2022-12-05T08:21:05;27.88;;;15.15;;
35917;SDS011;22011;59.912;30.300;2022-12-05T08:23:34;32.00;;;15.32;;
35917;SDS011;22011;59.912;30.300;2022-12-05T08:26:02;26.75;;;13.35;;
35917;SDS011;22011;59.912;30.300;2022-12-05T08:28:32;25.95;;;13.30;;
35917;SDS011;22011;59.912;30.300;2022-12-05T08:31:02;28.80;;;14.23;;
35917;SDS011;22011;59.912;30.300;2022-12-05T08:33:30;26.48;;;14.75;;
35917;SDS011;22011;59.912;30.300;2022-12-05T08:35:59;33.63;;;15.95;;
35917;SDS011;22011;59.912;30.300;2022-12-05T08:38:28;27.02;;;15.30;;
35917;SDS011;22011;59.912;30.300;2022-12-05T08:40:56;27.13;;;15.13;;
35917;SDS011;22011;59.912;30.300;2022-12-05T08:43:26;29.67;;;14.75;;
35917;SDS011;22011;59.912;30.300;2022-12-05T08:45:56;36.00;;;15.63;;
35917;SDS011;22011;59.912;30.300;2022-12-05T08:48:24;34.08;;;15.52;;
35917;SDS011;22011;59.912;30.300;2022-12-05T08:50:53;29.55;;;15.07;;
35917;SDS011;22011;59.912;30.300;2022-12-05T08:53:20;26.45;;;13.95;;
35917;SDS011;22011;59.912;30.300;2022-12-05T08:55:48;26.50;;;12.57;;
35917;SDS011;22011;59.912;30.300;2022-12-05T08:58:16;31.73;;;12.82;;
35917;SDS011;22011;59.912;30.300;2022-12-05T09:00:45;29.58;;;13.85;;
35917;SDS011;22011;59.912;30.300;2022-12-05T09:03:14;28.52;;;13.35;;
35917;SDS011;22011;59.912;30.300;2022-12-05T09:05:41;28.58;;;14.35;;
35917;SDS011;22011;59.912;30.300;2022-12-05T09:08:09;25.40;;;13.40;;
35917;SDS011;22011;59.912;30.300;2022-12-05T09:10:36;29.08;;;13.45;;
35917;SDS011;22011;59.912;30.300;2022-12-05T09:13:04;26.08;;;13.02;;
35917;SDS011;22011;59.912;30.300;2022-12-05T09:15:31;26.08;;;13.18;;
35917;SDS011;22011;59.912;30.300;2022-12-05T09:17:59;27.10;;;14.02;;
35917;SDS011;22011;59.912;30.300;2022-12-05T09:20:31;26.48;;;12.60;;
35917;SDS011;22011;59.912;30.300;2022-12-05T09:22:59;28.92;;;14.25;;
35917;SDS011;22011;59.912;30.300;2022-12-05T09:25:26;31.35;;;14.57;;
35917;SDS011;22011;59.912;30.300;2022-12-05T09:27:54;27.05;;;13.38;;
35917;SDS011;22011;59.912;30.300;2022-12-05T09:30:22;20.40;;;12.10;;
35917;SDS011;22011;59.912;30.300;2022-12-05T09:32:49;25.63;;;12.40;;
35917;SDS011;22011;59.912;30.300;2022-12-05T09:35:16;25.35;;;12.10;;
35917;SDS011;22011;59.912;30.300;2022-12-05T09:37:45;24.15;;;11.32;;
35917;SDS011;22011;59.912;30.300;2022-12-05T09:40:15;24.15;;;13.68;;
35917;SDS011;22011;59.912;30.300;2022-12-05T09:42:47;22.33;;;12.88;;
35917;SDS011;22011;59.912;30.300;2022-12-05T09:45:25;21.77;;;10.95;;
35917;SDS011;22011;59.912;30.300;2022-12-05T09:47:58;20.40;;;11.77;;
35917;SDS011;22011;59.912;30.300;2022-12-05T09:50:28;32.72;;;12.82;;
35917;SDS011;22011;59.912;30.300;2022-12-05T09:53:03;19.33;;;11.55;;
35917;SDS011;22011;59.912;30.300;2022-12-05T09:55:35;32.03;;;13.00;;
35917;SDS011;22011;59.912;30.300;2022-12-05T09:58:12;21.17;;;12.88;;
35917;SDS011;22011;59.912;30.300;2022-12-05T10:00:51;21.80;;;11.43;;
35917;SDS011;22011;59.912;30.300;2022-12-05T10:03:28;22.85;;;12.10;;
35917;SDS011;22011;59.912;30.300;2022-12-05T10:06:05;23.58;;;12.80;;
35917;SDS011;22011;59.912;30.300;2022-12-05T10:08:43;21.77;;;13.02;;
35917;SDS011;22011;59.912;30.300;2022-12-05T10:11:30;20.17;;;11.85;;
35917;SDS011;22011;59.912;30.300;2022-12-05T10:14:04;19.80;;;11.77;;
35917;SDS011;22011;59.912;30.300;2022-12-05T10:16:38;24.73;;;12.80;;
35917;SDS011;22011;59.912;30.300;2022-12-05T10:19:13;18.65;;;11.55;;
35917;SDS011;22011;59.912;30.300;2022-12-05T10:21:46;28.85;;;11.65;;
35917;SDS011;22011;59.912;30.300;2022-12-05T10:24:22;26.55;;;12.52;;
35917;SDS011;22011;59.912;30.300;2022-12-05T10:26:56;26.65;;;12.55;;
35917;SDS011;22011;59.912;30.300;2022-12-05T10:29:28;25.20;;;12.15;;
35917;SDS011;22011;59.912;30.300;2022-12-05T10:32:01;28.50;;;12.80;;
35917;SDS011;22011;59.912;30.300;2022-12-05T10:34:36;23.48;;;12.38;;
35917;SDS011;22011;59.912;30.300;2022-12-05T10:37:08;20.33;;;12.35;;
35917;SDS011;22011;59.912;30.300;2022-12-05T10:39:41;22.45;;;13.63;;
35917;SDS011;22011;59.912;30.300;2022-12-05T10:42:10;27.10;;;14.82;;
35917;SDS011;22011;59.912;30.300;2022-12-05T10:44:41;27.20;;;13.93;;
35917;SDS011;22011;59.912;30.300;2022-12-05T10:47:09;24.50;;;13.07;;
35917;SDS011;22011;59.912;30.300;2022-12-05T10:49:38;22.83;;;14.35;;
35917;SDS011;22011;59.912;30.300;2022-12-05T10:52:06;28.98;;;13.85;;
35917;SDS011;22011;59.912;30.300;2022-12-05T10:54:35;23.48;;;12.70;;
35917;SDS011;22011;59.912;30.300;2022-12-05T10:57:18;25.90;;;12.88;;
35917;SDS011;22011;59.912;30.300;2022-12-05T10:59:47;20.05;;;12.75;;
35917;SDS011;22011;59.912;30.300;2022-12-05T11:02:19;28.88;;;13.07;;
35917;SDS011;22011;59.912;30.300;2022-12-05T11:04:50;26.73;;;12.48;;
35917;SDS011;22011;59.912;30.300;2022-12-05T11:07:28;19.50;;;11.85;;
35917;SDS011;22011;59.912;30.300;2022-12-05T11:09:59;21.42;;;11.57;;
35917;SDS011;22011;59.912;30.300;2022-12-05T11:12:29;21.88;;;11.57;;
35917;SDS011;22011;59.912;30.300;2022-12-05T11:15:04;19.90;;;11.75;;
35917;SDS011;22011;59.912;30.300;2022-12-05T11:17:33;22.38;;;12.60;;
35917;SDS011;22011;59.912;30.300;2022-12-05T11:20:02;23.52;;;12.50;;
35917;SDS011;22011;59.912;30.300;2022-12-05T11:22:51;25.60;;;13.05;;
35917;SDS011;22011;59.912;30.300;2022-12-05T11:25:28;20.92;;;12.38;;
35917;SDS011;22011;59.912;30.300;2022-12-05T11:27:57;21.85;;;12.15;;
35917;SDS011;22011;59.912;30.300;2022-12-05T11:30:27;22.45;;;12.30;;
35917;SDS011;22011;59.912;30.300;2022-12-05T11:33:09;21.15;;;11.90;;
35917;SDS011;22011;59.912;30.300;2022-12-05T11:35:38;22.73;;;11.98;;
35917;SDS011;22011;59.912;30.300;2022-12-05T11:38:06;21.05;;;11.95;;
35917;SDS011;22011;59.912;30.300;2022-12-05T11:40:41;21.65;;;12.45;;
35917;SDS011;22011;59.912;30.300;2022-12-05T11:43:21;24.48;;;12.23;;
35917;SDS011;22011;59.912;30.300;2022-12-05T11:46:01;25.02;;;10.93;;
35917;SDS011;22011;59.912;30.300;2022-12-05T11:48:42;18.45;;;11.15;;
35917;SDS011;22011;59.912;30.300;2022-12-05T11:51:28;23.45;;;13.50;;
35917;SDS011;22011;59.912;30.300;2022-12-05T11:54:09;24.23;;;14.25;;
35917;SDS011;22011;59.912;30.300;2022-12-05T11:57:01;27.95;;;13.88;;
35917;SDS011;22011;59.912;30.300;2022-12-05T12:02:48;24.55;;;15.80;;
35917;SDS011;22011;59.912;30.300;2022-12-05T12:05:31;25.65;;;14.35;;
35917;SDS011;22011;59.912;30.300;2022-12-05T12:08:06;20.52;;;12.05;;
35917;SDS011;22011;59.912;30.300;2022-12-05T12:10:46;23.35;;;12.23;;
35917;SDS011;22011;59.912;30.300;2022-12-05T12:13:26;24.35;;;11.38;;
35917;SDS011;22011;59.912;30.300;2022-12-05T12:16:12;27.50;;;10.82;;
35917;SDS011;22011;59.912;30.300;2022-12-05T12:18:51;20.50;;;10.38;;
35917;SDS011;22011;59.912;30.300;2022-12-05T12:21:35;22.08;;;11.85;;
35917;SDS011;22011;59.912;30.300;2022-12-05T12:24:15;22.95;;;10.48;;
35917;SDS011;22011;59.912;30.300;2022-12-05T12:26:53;19.27;;;10.70;;
35917;SDS011;22011;59.912;30.300;2022-12-05T12:29:36;32.85;;;11.57;;
35917;SDS011;22011;59.912;30.300;2022-12-05T12:32:20;20.63;;;11.43;;
35917;SDS011;22011;59.912;30.300;2022-12-05T12:35:01;33.08;;;12.05;;
35917;SDS011;22011;59.912;30.300;2022-12-05T12:37:40;20.40;;;12.35;;
35917;SDS011;22011;59.912;30.300;2022-12-05T12:40:15;22.50;;;12.75;;
35917;SDS011;22011;59.912;30.300;2022-12-05T12:42:52;20.75;;;11.80;;
35917;SDS011;22011;59.912;30.300;2022-12-05T12:45:34;20.93;;;13.03;;
35917;SDS011;22011;59.912;30.300;2022-12-05T12:48:17;25.45;;;15.48;;
35917;SDS011;22011;59.912;30.300;2022-12-05T12:53:30;23.13;;;11.77;;
35917;SDS011;22011;59.912;30.300;2022-12-05T12:56:16;33.65;;;15.05;;
35917;SDS011;22011;59.912;30.300;2022-12-05T12:59:03;27.92;;;13.20;;
35917;SDS011;22011;59.912;30.300;2022-12-05T13:01:45;26.67;;;11.52;;
35917;SDS011;22011;59.912;30.300;2022-12-05T13:04:19;19.60;;;11.13;;
35917;SDS011;22011;59.912;30.300;2022-12-05T13:06:51;26.23;;;12.15;;
35917;SDS011;22011;59.912;30.300;2022-12-05T13:09:24;22.92;;;12.52;;
35917;SDS011;22011;59.912;30.300;2022-12-05T13:11:58;25.05;;;13.35;;
35917;SDS011;22011;59.912;30.300;2022-12-05T13:14:30;24.23;;;13.63;;
35917;SDS011;22011;59.912;30.300;2022-12-05T13:17:04;22.48;;;13.02;;
35917;SDS011;22011;59.912;30.300;2022-12-05T13:19:36;21.90;;;12.95;;
35917;SDS011;22011;59.912;30.300;2022-12-05T13:22:08;23.92;;;13.13;;
35917;SDS011;22011;59.912;30.300;2022-12-05T13:24:37;24.23;;;12.88;;
35917;SDS011;22011;59.912;30.300;2022-12-05T13:27:08;28.42;;;14.15;;
35917;SDS011;22011;59.912;30.300;2022-12-05T13:29:41;24.70;;;14.60;;
35917;SDS011;22011;59.912;30.300;2022-12-05T13:32:25;20.38;;;12.90;;
35917;SDS011;22011;59.912;30.300;2022-12-05T13:34:57;23.15;;;13.00;;
35917;SDS011;22011;59.912;30.300;2022-12-05T13:37:27;23.42;;;13.43;;
35917;SDS011;22011;59.912;30.300;2022-12-05T13:40:21;24.98;;;14.52;;
35917;SDS011;22011;59.912;30.300;2022-12-05T13:43:12;25.65;;;11.25;;
35917;SDS011;22011;59.912;30.300;2022-12-05T13:45:50;22.55;;;13.02;;
35917;SDS011;22011;59.912;30.300;2022-12-05T13:48:27;21.83;;;12.18;;
35917;SDS011;22011;59.912;30.300;2022-12-05T13:51:00;23.25;;;13.13;;
35917;SDS011;22011;59.912;30.300;2022-12-05T13:53:34;23.23;;;12.70;;
35917;SDS011;22011;59.912;30.300;2022-12-05T13:56:05;21.52;;;12.15;;
35917;SDS011;22011;59.912;30.300;2022-12-05T13:58:52;23.02;;;12.20;;
35917;SDS011;22011;59.912;30.300;2022-12-05T14:04:23;22.52;;;11.48;;
35917;SDS011;22011;59.912;30.300;2022-12-05T14:10:03;27.88;;;13.25;;
35917;SDS011;22011;59.912;30.300;2022-12-05T14:15:29;24.48;;;13.63;;
35917;SDS011;22011;59.912;30.300;2022-12-05T14:18:02;25.20;;;13.00;;
35917;SDS011;22011;59.912;30.300;2022-12-05T14:20:44;24.50;;;11.93;;
35917;SDS011;22011;59.912;30.300;2022-12-05T14:23:28;23.63;;;12.68;;
35917;SDS011;22011;59.912;30.300;2022-12-05T14:26:14;27.27;;;12.65;;
35917;SDS011;22011;59.912;30.300;2022-12-05T14:29:00;25.40;;;12.55;;
35917;SDS011;22011;59.912;30.300;2022-12-05T14:31:43;20.58;;;11.70;;
35917;SDS011;22011;59.912;30.300;2022-12-05T14:34:25;22.98;;;12.30;;
35917;SDS011;22011;59.912;30.300;2022-12-05T14:36:55;23.33;;;12.20;;
35917;SDS011;22011;59.912;30.300;2022-12-05T14:39:29;24.75;;;12.98;;
35917;SDS011;22011;59.912;30.300;2022-12-05T14:42:07;32.95;;;14.07;;
35917;SDS011;22011;59.912;30.300;2022-12-05T14:44:52;22.67;;;12.73;;
35917;SDS011;22011;59.912;30.300;2022-12-05T14:47:23;21.17;;;13.77;;
35917;SDS011;22011;59.912;30.300;2022-12-05T14:49:54;24.80;;;13.32;;
35917;SDS011;22011;59.912;30.300;2022-12-05T14:52:28;21.90;;;12.10;;
35917;SDS011;22011;59.912;30.300;2022-12-05T14:55:04;21.55;;;11.00;;
35917;SDS011;22011;59.912;30.300;2022-12-05T14:57:42;22.83;;;12.55;;
35917;SDS011;22011;59.912;30.300;2022-12-05T15:00:16;20.88;;;12.43;;
35917;SDS011;22011;59.912;30.300;2022-12-05T15:02:48;21.48;;;12.20;;